sensor_id;sensor_type;location;lat;lon;timestamp;P1;durP1;ratioP1;P2;durP2;ratioP2
8407;SDS011;4241;48.452;9.216;2024-03-23T00:54:02;442.17;;;138.93;;
8407;SDS011;4241;48.452;9.216;2024-03-23T00:56:29;441.37;;;139.17;;
8407;SDS011;4241;48.452;9.216;2024-03-23T00:58:54;442.37;;;139.97;;
8407;SDS011;4241;48.452;9.216;2024-03-23T01:01:21;443.07;;;140.23;;
8407;SDS011;4241;48.452;9.216;2024-03-23T01:03:47;445.40;;;143.20;;
8407;SDS011;4241;48.452;9.216;2024-03-23T01:06:14;442.63;;;140.03;;
8407;SDS011;4241;48.452;9.216;2024-03-23T01:08:41;445.87;;;143.03;;
8407;SDS011;4241;48.452;9.216;2024-03-23T01:11:08;442.83;;;139.63;;
8407;SDS011;4241;48.452;9.216;2024-03-23T01:13:34;447.03;;;145.63;;
8407;SDS011;4241;48.452;9.216;2024-03-23T01:16:01;442.03;;;140.40;;
8407;SDS011;4241;48.452;9.216;2024-03-23T01:18:26;446.10;;;143.43;;
8407;SDS011;4241;48.452;9.216;2024-03-23T01:20:54;443.27;;;141.13;;
8407;SDS011;4241;48.452;9.216;2024-03-23T01:23:20;446.53;;;144.07;;
8407;SDS011;4241;48.452;9.216;2024-03-23T01:25:52;443.30;;;140.97;;
8407;SDS011;4241;48.452;9.216;2024-03-23T01:28:18;442.10;;;139.70;;
8407;SDS011;4241;48.452;9.216;2024-03-23T01:30:45;444.80;;;143.17;;
8407;SDS011;4241;48.452;9.216;2024-03-23T01:33:11;445.57;;;142.87;;
8407;SDS011;4241;48.452;9.216;2024-03-23T01:35:38;442.00;;;139.27;;
8407;SDS011;4241;48.452;9.216;2024-03-23T01:38:04;445.37;;;142.33;;
8407;SDS011;4241;48.452;9.216;2024-03-23T01:40:31;441.73;;;140.57;;
8407;SDS011;4241;48.452;9.216;2024-03-23T01:43:00;444.23;;;141.27;;
8407;SDS011;4241;48.452;9.216;2024-03-23T01:45:30;440.30;;;137.27;;
8407;SDS011;4241;48.452;9.216;2024-03-23T01:47:56;443.07;;;140.20;;
8407;SDS011;4241;48.452;9.216;2024-03-23T01:50:23;442.60;;;140.07;;
8407;SDS011;4241;48.452;9.216;2024-03-23T01:52:49;446.07;;;143.40;;
8407;SDS011;4241;48.452;9.216;2024-03-23T01:55:17;440.93;;;138.17;;
8407;SDS011;4241;48.452;9.216;2024-03-23T01:57:43;444.73;;;140.83;;
8407;SDS011;4241;48.452;9.216;2024-03-23T02:00:11;442.67;;;141.10;;
8407;SDS011;4241;48.452;9.216;2024-03-23T02:02:41;444.40;;;141.90;;
8407;SDS011;4241;48.452;9.216;2024-03-23T02:05:09;441.43;;;138.70;;
8407;SDS011;4241;48.452;9.216;2024-03-23T02:07:35;443.00;;;140.37;;
8407;SDS011;4241;48.452;9.216;2024-03-23T02:10:02;439.60;;;138.40;;
8407;SDS011;4241;48.452;9.216;2024-03-23T02:12:29;446.07;;;143.40;;
8407;SDS011;4241;48.452;9.216;2024-03-23T02:14:56;443.77;;;141.33;;
8407;SDS011;4241;48.452;9.216;2024-03-23T02:17:23;443.60;;;141.53;;
8407;SDS011;4241;48.452;9.216;2024-03-23T02:19:50;443.07;;;141.93;;
8407;SDS011;4241;48.452;9.216;2024-03-23T02:22:16;441.93;;;138.93;;
8407;SDS011;4241;48.452;9.216;2024-03-23T02:24:44;442.10;;;141.77;;
8407;SDS011;4241;48.452;9.216;2024-03-23T02:27:10;444.07;;;142.13;;
8407;SDS011;4241;48.452;9.216;2024-03-23T02:29:37;437.77;;;135.40;;
8407;SDS011;4241;48.452;9.216;2024-03-23T02:32:03;444.33;;;142.33;;
8407;SDS011;4241;48.452;9.216;2024-03-23T02:34:30;443.20;;;142.03;;
8407;SDS011;4241;48.452;9.216;2024-03-23T02:36:56;444.73;;;142.40;;
8407;SDS011;4241;48.452;9.216;2024-03-23T02:39:23;442.53;;;140.90;;
8407;SDS011;4241;48.452;9.216;2024-03-23T02:41:50;446.23;;;143.17;;
8407;SDS011;4241;48.452;9.216;2024-03-23T02:44:17;444.33;;;142.30;;
8407;SDS011;4241;48.452;9.216;2024-03-23T02:46:43;446.60;;;143.10;;
8407;SDS011;4241;48.452;9.216;2024-03-23T02:49:09;441.43;;;138.27;;
8407;SDS011;4241;48.452;9.216;2024-03-23T02:51:35;442.43;;;139.27;;
8407;SDS011;4241;48.452;9.216;2024-03-23T02:54:02;443.97;;;141.57;;
8407;SDS011;4241;48.452;9.216;2024-03-23T02:56:28;445.03;;;142.67;;
8407;SDS011;4241;48.452;9.216;2024-03-23T02:58:56;444.50;;;141.83;;
8407;SDS011;4241;48.452;9.216;2024-03-23T03:01:22;445.50;;;144.30;;
8407;SDS011;4241;48.452;9.216;2024-03-23T03:03:48;445.50;;;144.67;;
8407;SDS011;4241;48.452;9.216;2024-03-23T03:06:22;446.27;;;142.97;;
8407;SDS011;4241;48.452;9.216;2024-03-23T03:08:49;443.43;;;141.93;;
8407;SDS011;4241;48.452;9.216;2024-03-23T03:11:15;446.17;;;145.77;;
8407;SDS011;4241;48.452;9.216;2024-03-23T03:13:42;443.37;;;142.27;;
8407;SDS011;4241;48.452;9.216;2024-03-23T03:16:09;446.43;;;143.40;;
8407;SDS011;4241;48.452;9.216;2024-03-23T03:18:36;444.23;;;141.97;;
8407;SDS011;4241;48.452;9.216;2024-03-23T03:21:02;446.20;;;144.80;;
8407;SDS011;4241;48.452;9.216;2024-03-23T03:23:30;443.03;;;142.17;;
8407;SDS011;4241;48.452;9.216;2024-03-23T03:25:56;446.33;;;144.67;;
8407;SDS011;4241;48.452;9.216;2024-03-23T03:28:23;447.27;;;144.77;;
8407;SDS011;4241;48.452;9.216;2024-03-23T03:30:49;447.43;;;146.20;;
8407;SDS011;4241;48.452;9.216;2024-03-23T03:33:17;444.97;;;144.20;;
8407;SDS011;4241;48.452;9.216;2024-03-23T03:35:43;444.23;;;143.40;;
8407;SDS011;4241;48.452;9.216;2024-03-23T03:38:10;446.37;;;146.20;;
8407;SDS011;4241;48.452;9.216;2024-03-23T03:40:36;448.57;;;148.80;;
8407;SDS011;4241;48.452;9.216;2024-03-23T03:43:03;444.30;;;144.17;;
8407;SDS011;4241;48.452;9.216;2024-03-23T03:45:29;448.67;;;148.17;;
8407;SDS011;4241;48.452;9.216;2024-03-23T03:47:56;445.80;;;144.83;;
8407;SDS011;4241;48.452;9.216;2024-03-23T03:50:23;447.93;;;145.47;;
8407;SDS011;4241;48.452;9.216;2024-03-23T03:52:50;444.47;;;143.47;;
8407;SDS011;4241;48.452;9.216;2024-03-23T03:55:16;447.50;;;144.10;;
8407;SDS011;4241;48.452;9.216;2024-03-23T03:57:43;444.37;;;142.23;;
8407;SDS011;4241;48.452;9.216;2024-03-23T04:00:09;447.33;;;144.27;;
8407;SDS011;4241;48.452;9.216;2024-03-23T04:02:37;446.50;;;146.07;;
8407;SDS011;4241;48.452;9.216;2024-03-23T04:05:03;446.23;;;143.10;;
8407;SDS011;4241;48.452;9.216;2024-03-23T04:07:31;440.23;;;138.20;;
8407;SDS011;4241;48.452;9.216;2024-03-23T04:09:57;445.27;;;144.30;;
8407;SDS011;4241;48.452;9.216;2024-03-23T04:12:24;445.10;;;142.67;;
8407;SDS011;4241;48.452;9.216;2024-03-23T04:14:49;447.53;;;145.43;;
8407;SDS011;4241;48.452;9.216;2024-03-23T04:17:16;445.03;;;144.47;;
8407;SDS011;4241;48.452;9.216;2024-03-23T04:19:42;445.20;;;143.83;;
8407;SDS011;4241;48.452;9.216;2024-03-23T04:22:10;445.57;;;144.20;;
8407;SDS011;4241;48.452;9.216;2024-03-23T04:24:37;447.63;;;146.60;;
8407;SDS011;4241;48.452;9.216;2024-03-23T04:27:03;445.40;;;144.23;;
8407;SDS011;4241;48.452;9.216;2024-03-23T04:29:29;448.37;;;146.33;;
8407;SDS011;4241;48.452;9.216;2024-03-23T04:31:56;442.47;;;141.47;;
8407;SDS011;4241;48.452;9.216;2024-03-23T04:34:22;445.47;;;144.93;;
8407;SDS011;4241;48.452;9.216;2024-03-23T04:36:49;446.13;;;144.77;;
8407;SDS011;4241;48.452;9.216;2024-03-23T04:39:15;448.10;;;146.40;;
8407;SDS011;4241;48.452;9.216;2024-03-23T04:41:43;443.40;;;140.80;;
8407;SDS011;4241;48.452;9.216;2024-03-23T04:44:10;445.77;;;143.83;;
8407;SDS011;4241;48.452;9.216;2024-03-23T04:46:37;443.67;;;141.80;;
8407;SDS011;4241;48.452;9.216;2024-03-23T04:49:04;445.43;;;144.10;;
8407;SDS011;4241;48.452;9.216;2024-03-23T04:51:34;445.50;;;143.13;;
8407;SDS011;4241;48.452;9.216;2024-03-23T04:54:01;446.70;;;144.60;;
8407;SDS011;4241;48.452;9.216;2024-03-23T04:56:29;443.00;;;140.57;;
8407;SDS011;4241;48.452;9.216;2024-03-23T04:58:57;447.67;;;145.50;;
8407;SDS011;4241;48.452;9.216;2024-03-23T05:01:26;443.87;;;142.43;;
8407;SDS011;4241;48.452;9.216;2024-03-23T05:03:52;445.03;;;143.83;;
8407;SDS011;4241;48.452;9.216;2024-03-23T05:06:18;444.27;;;141.80;;
8407;SDS011;4241;48.452;9.216;2024-03-23T05:08:47;445.13;;;144.23;;
8407;SDS011;4241;48.452;9.216;2024-03-23T05:11:14;444.27;;;142.60;;
8407;SDS011;4241;48.452;9.216;2024-03-23T05:13:40;447.17;;;146.60;;
8407;SDS011;4241;48.452;9.216;2024-03-23T05:16:08;444.83;;;144.00;;
8407;SDS011;4241;48.452;9.216;2024-03-23T05:18:34;447.07;;;147.07;;
8407;SDS011;4241;48.452;9.216;2024-03-23T05:21:01;444.03;;;143.20;;
8407;SDS011;4241;48.452;9.216;2024-03-23T05:23:28;447.63;;;148.47;;
8407;SDS011;4241;48.452;9.216;2024-03-23T05:25:55;442.60;;;142.20;;
8407;SDS011;4241;48.452;9.216;2024-03-23T05:28:20;446.80;;;145.83;;
8407;SDS011;4241;48.452;9.216;2024-03-23T05:30:50;446.90;;;144.47;;
8407;SDS011;4241;48.452;9.216;2024-03-23T05:33:17;448.73;;;147.37;;
8407;SDS011;4241;48.452;9.216;2024-03-23T05:35:44;439.63;;;137.20;;
8407;SDS011;4241;48.452;9.216;2024-03-23T05:38:10;444.33;;;139.07;;
8407;SDS011;4241;48.452;9.216;2024-03-23T05:40:37;443.23;;;138.17;;
8407;SDS011;4241;48.452;9.216;2024-03-23T05:43:05;440.90;;;136.80;;
8407;SDS011;4241;48.452;9.216;2024-03-23T05:45:32;438.97;;;133.60;;
8407;SDS011;4241;48.452;9.216;2024-03-23T05:47:58;437.70;;;133.07;;
8407;SDS011;4241;48.452;9.216;2024-03-23T05:50:26;441.03;;;136.57;;
8407;SDS011;4241;48.452;9.216;2024-03-23T05:52:52;433.23;;;128.80;;
8407;SDS011;4241;48.452;9.216;2024-03-23T05:55:19;427.83;;;123.87;;
8407;SDS011;4241;48.452;9.216;2024-03-23T05:57:45;431.60;;;127.10;;
8407;SDS011;4241;48.452;9.216;2024-03-23T06:00:12;430.50;;;127.60;;
8407;SDS011;4241;48.452;9.216;2024-03-23T06:02:41;428.90;;;124.27;;
8407;SDS011;4241;48.452;9.216;2024-03-23T06:05:09;429.17;;;125.70;;
8407;SDS011;4241;48.452;9.216;2024-03-23T06:07:36;428.37;;;125.47;;
8407;SDS011;4241;48.452;9.216;2024-03-23T06:10:03;428.03;;;125.57;;
8407;SDS011;4241;48.452;9.216;2024-03-23T06:12:30;430.77;;;127.10;;
8407;SDS011;4241;48.452;9.216;2024-03-23T06:14:57;428.43;;;125.13;;
8407;SDS011;4241;48.452;9.216;2024-03-23T06:17:23;430.97;;;127.33;;
8407;SDS011;4241;48.452;9.216;2024-03-23T06:19:49;426.63;;;124.03;;
8407;SDS011;4241;48.452;9.216;2024-03-23T06:22:15;431.47;;;129.17;;
8407;SDS011;4241;48.452;9.216;2024-03-23T06:24:43;430.47;;;126.83;;
8407;SDS011;4241;48.452;9.216;2024-03-23T06:27:09;427.83;;;124.97;;
8407;SDS011;4241;48.452;9.216;2024-03-23T06:29:36;429.17;;;126.73;;
8407;SDS011;4241;48.452;9.216;2024-03-23T06:32:02;429.03;;;125.87;;
8407;SDS011;4241;48.452;9.216;2024-03-23T06:34:29;428.83;;;125.00;;
8407;SDS011;4241;48.452;9.216;2024-03-23T06:36:55;429.00;;;124.83;;
8407;SDS011;4241;48.452;9.216;2024-03-23T06:39:22;426.33;;;122.17;;
8407;SDS011;4241;48.452;9.216;2024-03-23T06:41:52;424.50;;;121.87;;
8407;SDS011;4241;48.452;9.216;2024-03-23T06:44:20;429.17;;;125.50;;
8407;SDS011;4241;48.452;9.216;2024-03-23T06:46:46;427.37;;;124.07;;
8407;SDS011;4241;48.452;9.216;2024-03-23T06:49:13;426.40;;;123.60;;
8407;SDS011;4241;48.452;9.216;2024-03-23T06:51:40;423.90;;;122.20;;
8407;SDS011;4241;48.452;9.216;2024-03-23T06:54:06;421.57;;;119.20;;
8407;SDS011;4241;48.452;9.216;2024-03-23T06:56:33;424.60;;;122.57;;
8407;SDS011;4241;48.452;9.216;2024-03-23T06:59:01;421.17;;;119.43;;
8407;SDS011;4241;48.452;9.216;2024-03-23T07:01:27;420.77;;;119.57;;
8407;SDS011;4241;48.452;9.216;2024-03-23T07:03:53;419.70;;;118.80;;
8407;SDS011;4241;48.452;9.216;2024-03-23T07:06:20;422.20;;;121.17;;
8407;SDS011;4241;48.452;9.216;2024-03-23T07:08:46;420.47;;;119.93;;
8407;SDS011;4241;48.452;9.216;2024-03-23T07:11:17;419.73;;;119.30;;
8407;SDS011;4241;48.452;9.216;2024-03-23T07:13:44;423.17;;;121.70;;
8407;SDS011;4241;48.452;9.216;2024-03-23T07:16:13;421.17;;;120.73;;
8407;SDS011;4241;48.452;9.216;2024-03-23T07:18:38;420.83;;;121.10;;
8407;SDS011;4241;48.452;9.216;2024-03-23T07:21:05;420.63;;;120.47;;
8407;SDS011;4241;48.452;9.216;2024-03-23T07:23:32;422.13;;;121.17;;
8407;SDS011;4241;48.452;9.216;2024-03-23T07:25:59;422.63;;;121.93;;
8407;SDS011;4241;48.452;9.216;2024-03-23T07:28:26;422.80;;;121.27;;
8407;SDS011;4241;48.452;9.216;2024-03-23T07:31:03;421.87;;;120.83;;
8407;SDS011;4241;48.452;9.216;2024-03-23T07:33:31;418.43;;;118.43;;
8407;SDS011;4241;48.452;9.216;2024-03-23T07:35:58;424.17;;;122.53;;
8407;SDS011;4241;48.452;9.216;2024-03-23T07:38:25;423.67;;;122.50;;
8407;SDS011;4241;48.452;9.216;2024-03-23T07:41:01;426.57;;;125.23;;
8407;SDS011;4241;48.452;9.216;2024-03-23T07:43:28;418.47;;;118.67;;
8407;SDS011;4241;48.452;9.216;2024-03-23T07:45:54;425.33;;;124.47;;
8407;SDS011;4241;48.452;9.216;2024-03-23T07:48:21;422.80;;;121.90;;
8407;SDS011;4241;48.452;9.216;2024-03-23T07:50:57;425.60;;;124.13;;
8407;SDS011;4241;48.452;9.216;2024-03-23T07:53:23;421.47;;;121.20;;
8407;SDS011;4241;48.452;9.216;2024-03-23T07:55:54;420.33;;;120.07;;
8407;SDS011;4241;48.452;9.216;2024-03-23T07:58:20;424.67;;;123.73;;
8407;SDS011;4241;48.452;9.216;2024-03-23T08:00:47;423.63;;;122.50;;
8407;SDS011;4241;48.452;9.216;2024-03-23T08:03:13;420.53;;;120.30;;
8407;SDS011;4241;48.452;9.216;2024-03-23T08:05:40;423.27;;;123.23;;
8407;SDS011;4241;48.452;9.216;2024-03-23T08:08:08;422.07;;;121.60;;
8407;SDS011;4241;48.452;9.216;2024-03-23T08:10:34;422.53;;;121.27;;
8407;SDS011;4241;48.452;9.216;2024-03-23T08:13:00;422.57;;;122.60;;
8407;SDS011;4241;48.452;9.216;2024-03-23T08:15:29;422.07;;;121.50;;
8407;SDS011;4241;48.452;9.216;2024-03-23T08:17:55;418.63;;;117.50;;
8407;SDS011;4241;48.452;9.216;2024-03-23T08:20:22;422.37;;;121.77;;
8407;SDS011;4241;48.452;9.216;2024-03-23T08:22:48;417.47;;;117.70;;
8407;SDS011;4241;48.452;9.216;2024-03-23T08:25:16;418.53;;;119.20;;
8407;SDS011;4241;48.452;9.216;2024-03-23T08:27:43;416.23;;;117.10;;
8407;SDS011;4241;48.452;9.216;2024-03-23T08:30:10;418.77;;;119.17;;
8407;SDS011;4241;48.452;9.216;2024-03-23T08:32:36;417.53;;;117.60;;
8407;SDS011;4241;48.452;9.216;2024-03-23T08:35:04;420.40;;;119.93;;
8407;SDS011;4241;48.452;9.216;2024-03-23T08:37:30;423.67;;;122.20;;
8407;SDS011;4241;48.452;9.216;2024-03-23T08:39:57;419.73;;;119.47;;
8407;SDS011;4241;48.452;9.216;2024-03-23T08:42:24;419.03;;;118.90;;
8407;SDS011;4241;48.452;9.216;2024-03-23T08:44:51;419.80;;;120.23;;
8407;SDS011;4241;48.452;9.216;2024-03-23T08:47:17;419.93;;;119.97;;
8407;SDS011;4241;48.452;9.216;2024-03-23T08:49:44;419.47;;;119.73;;
8407;SDS011;4241;48.452;9.216;2024-03-23T08:52:10;418.90;;;119.40;;
8407;SDS011;4241;48.452;9.216;2024-03-23T08:54:36;422.97;;;122.83;;
8407;SDS011;4241;48.452;9.216;2024-03-23T08:57:03;418.10;;;119.33;;
8407;SDS011;4241;48.452;9.216;2024-03-23T08:59:30;422.03;;;121.60;;
8407;SDS011;4241;48.452;9.216;2024-03-23T09:01:57;420.47;;;120.50;;
8407;SDS011;4241;48.452;9.216;2024-03-23T09:04:23;423.37;;;121.33;;
8407;SDS011;4241;48.452;9.216;2024-03-23T09:06:50;418.70;;;118.53;;
8407;SDS011;4241;48.452;9.216;2024-03-23T09:09:16;421.03;;;120.93;;
8407;SDS011;4241;48.452;9.216;2024-03-23T09:11:45;415.63;;;117.13;;
8407;SDS011;4241;48.452;9.216;2024-03-23T09:14:10;419.93;;;120.23;;
8407;SDS011;4241;48.452;9.216;2024-03-23T09:16:38;421.73;;;121.80;;
8407;SDS011;4241;48.452;9.216;2024-03-23T09:19:04;420.57;;;121.40;;
8407;SDS011;4241;48.452;9.216;2024-03-23T09:21:31;417.90;;;118.40;;
8407;SDS011;4241;48.452;9.216;2024-03-23T09:23:57;417.40;;;117.97;;
8407;SDS011;4241;48.452;9.216;2024-03-23T09:26:24;418.90;;;118.87;;
8407;SDS011;4241;48.452;9.216;2024-03-23T09:28:49;418.87;;;119.10;;
8407;SDS011;4241;48.452;9.216;2024-03-23T09:31:16;417.33;;;118.33;;
8407;SDS011;4241;48.452;9.216;2024-03-23T09:33:43;422.40;;;122.23;;
8407;SDS011;4241;48.452;9.216;2024-03-23T09:36:10;415.70;;;116.87;;
8407;SDS011;4241;48.452;9.216;2024-03-23T09:38:36;419.87;;;120.93;;
8407;SDS011;4241;48.452;9.216;2024-03-23T09:41:06;413.97;;;115.73;;
8407;SDS011;4241;48.452;9.216;2024-03-23T09:43:33;417.23;;;119.03;;
8407;SDS011;4241;48.452;9.216;2024-03-23T09:46:01;415.20;;;116.87;;
8407;SDS011;4241;48.452;9.216;2024-03-23T09:48:27;416.03;;;117.67;;
8407;SDS011;4241;48.452;9.216;2024-03-23T09:50:55;415.23;;;115.90;;
8407;SDS011;4241;48.452;9.216;2024-03-23T09:53:22;420.57;;;120.87;;
8407;SDS011;4241;48.452;9.216;2024-03-23T09:55:48;421.57;;;120.77;;
8407;SDS011;4241;48.452;9.216;2024-03-23T09:58:15;426.83;;;125.57;;
8407;SDS011;4241;48.452;9.216;2024-03-23T10:00:43;421.53;;;120.57;;
8407;SDS011;4241;48.452;9.216;2024-03-23T10:03:11;423.73;;;122.67;;
8407;SDS011;4241;48.452;9.216;2024-03-23T10:05:38;425.47;;;124.23;;
8407;SDS011;4241;48.452;9.216;2024-03-23T10:08:17;423.87;;;122.33;;
8407;SDS011;4241;48.452;9.216;2024-03-23T10:10:45;423.00;;;121.43;;
8407;SDS011;4241;48.452;9.216;2024-03-23T10:13:11;423.60;;;122.47;;
8407;SDS011;4241;48.452;9.216;2024-03-23T10:15:54;424.57;;;123.20;;
8407;SDS011;4241;48.452;9.216;2024-03-23T10:18:22;424.00;;;123.17;;
8407;SDS011;4241;48.452;9.216;2024-03-23T10:20:50;429.97;;;127.77;;
8407;SDS011;4241;48.452;9.216;2024-03-23T10:23:20;428.27;;;126.97;;
8407;SDS011;4241;48.452;9.216;2024-03-23T10:25:48;429.03;;;127.77;;
8407;SDS011;4241;48.452;9.216;2024-03-23T10:28:14;424.37;;;123.67;;
8407;SDS011;4241;48.452;9.216;2024-03-23T10:30:41;427.17;;;125.70;;
8407;SDS011;4241;48.452;9.216;2024-03-23T10:33:08;424.83;;;123.37;;
8407;SDS011;4241;48.452;9.216;2024-03-23T10:35:36;426.73;;;125.67;;
8407;SDS011;4241;48.452;9.216;2024-03-23T10:38:04;422.87;;;121.57;;
8407;SDS011;4241;48.452;9.216;2024-03-23T10:40:33;436.07;;;132.93;;
8407;SDS011;4241;48.452;9.216;2024-03-23T10:43:00;424.93;;;124.83;;
8407;SDS011;4241;48.452;9.216;2024-03-23T10:45:29;430.23;;;127.30;;
8407;SDS011;4241;48.452;9.216;2024-03-23T10:47:56;430.50;;;127.80;;
8407;SDS011;4241;48.452;9.216;2024-03-23T10:50:22;435.67;;;133.27;;
8407;SDS011;4241;48.452;9.216;2024-03-23T10:52:49;444.07;;;140.77;;
8407;SDS011;4241;48.452;9.216;2024-03-23T10:55:17;436.77;;;133.33;;
8407;SDS011;4241;48.452;9.216;2024-03-23T10:57:49;436.13;;;132.73;;
8407;SDS011;4241;48.452;9.216;2024-03-23T11:00:17;438.13;;;133.30;;
8407;SDS011;4241;48.452;9.216;2024-03-23T11:02:46;436.57;;;132.00;;
8407;SDS011;4241;48.452;9.216;2024-03-23T11:05:29;433.47;;;130.20;;
8407;SDS011;4241;48.452;9.216;2024-03-23T11:07:57;427.53;;;123.63;;
8407;SDS011;4241;48.452;9.216;2024-03-23T11:10:26;421.20;;;122.30;;
8407;SDS011;4241;48.452;9.216;2024-03-23T11:12:56;411.10;;;116.80;;
8407;SDS011;4241;48.452;9.216;2024-03-23T11:15:22;403.20;;;109.60;;
8407;SDS011;4241;48.452;9.216;2024-03-23T11:18:02;408.23;;;115.33;;
8407;SDS011;4241;48.452;9.216;2024-03-23T11:20:31;412.00;;;119.60;;
8407;SDS011;4241;48.452;9.216;2024-03-23T11:22:58;402.17;;;110.77;;
8407;SDS011;4241;48.452;9.216;2024-03-23T11:25:25;406.20;;;114.03;;
8407;SDS011;4241;48.452;9.216;2024-03-23T11:27:53;404.87;;;111.77;;
8407;SDS011;4241;48.452;9.216;2024-03-23T11:30:22;414.17;;;119.73;;
8407;SDS011;4241;48.452;9.216;2024-03-23T11:32:50;408.77;;;114.97;;
8407;SDS011;4241;48.452;9.216;2024-03-23T11:35:30;410.67;;;116.20;;
8407;SDS011;4241;48.452;9.216;2024-03-23T11:38:04;407.63;;;113.83;;
8407;SDS011;4241;48.452;9.216;2024-03-23T11:40:31;415.37;;;121.70;;
8407;SDS011;4241;48.452;9.216;2024-03-23T11:42:59;404.23;;;111.40;;
8407;SDS011;4241;48.452;9.216;2024-03-23T11:45:27;406.33;;;112.33;;
8407;SDS011;4241;48.452;9.216;2024-03-23T11:48:07;408.57;;;114.20;;
8407;SDS011;4241;48.452;9.216;2024-03-23T11:50:34;409.63;;;115.13;;
8407;SDS011;4241;48.452;9.216;2024-03-23T11:55:48;411.50;;;117.57;;
8407;SDS011;4241;48.452;9.216;2024-03-23T11:58:16;408.00;;;114.80;;
8407;SDS011;4241;48.452;9.216;2024-03-23T12:00:49;411.60;;;117.77;;
8407;SDS011;4241;48.452;9.216;2024-03-23T12:03:16;408.90;;;115.10;;
8407;SDS011;4241;48.452;9.216;2024-03-23T12:05:47;410.50;;;116.77;;
8407;SDS011;4241;48.452;9.216;2024-03-23T12:08:18;410.37;;;115.60;;
8407;SDS011;4241;48.452;9.216;2024-03-23T12:10:47;408.40;;;114.20;;
8407;SDS011;4241;48.452;9.216;2024-03-23T12:13:15;405.90;;;111.73;;
8407;SDS011;4241;48.452;9.216;2024-03-23T12:15:42;410.73;;;115.63;;
8407;SDS011;4241;48.452;9.216;2024-03-23T12:18:11;409.33;;;114.23;;
8407;SDS011;4241;48.452;9.216;2024-03-23T12:20:37;412.77;;;117.17;;
8407;SDS011;4241;48.452;9.216;2024-03-23T12:23:05;407.83;;;112.90;;
8407;SDS011;4241;48.452;9.216;2024-03-23T12:25:32;414.77;;;120.07;;
8407;SDS011;4241;48.452;9.216;2024-03-23T12:27:59;409.90;;;115.50;;
8407;SDS011;4241;48.452;9.216;2024-03-23T12:30:25;417.47;;;122.23;;
8407;SDS011;4241;48.452;9.216;2024-03-23T12:32:53;412.07;;;117.53;;
8407;SDS011;4241;48.452;9.216;2024-03-23T12:35:19;408.90;;;114.87;;
8407;SDS011;4241;48.452;9.216;2024-03-23T12:37:46;406.30;;;111.80;;
8407;SDS011;4241;48.452;9.216;2024-03-23T12:40:12;411.57;;;115.57;;
8407;SDS011;4241;48.452;9.216;2024-03-23T12:42:39;406.50;;;111.90;;
8407;SDS011;4241;48.452;9.216;2024-03-23T12:45:05;412.67;;;115.70;;
8407;SDS011;4241;48.452;9.216;2024-03-23T12:47:32;411.03;;;114.77;;
8407;SDS011;4241;48.452;9.216;2024-03-23T12:50:00;417.97;;;120.13;;
8407;SDS011;4241;48.452;9.216;2024-03-23T12:52:26;414.23;;;116.93;;
8407;SDS011;4241;48.452;9.216;2024-03-23T12:54:54;424.17;;;125.23;;
8407;SDS011;4241;48.452;9.216;2024-03-23T12:57:22;413.77;;;116.23;;
8407;SDS011;4241;48.452;9.216;2024-03-23T12:59:49;417.47;;;119.03;;
8407;SDS011;4241;48.452;9.216;2024-03-23T13:02:17;413.27;;;114.47;;
8407;SDS011;4241;48.452;9.216;2024-03-23T13:04:44;418.27;;;119.43;;
8407;SDS011;4241;48.452;9.216;2024-03-23T13:07:13;416.40;;;117.93;;
8407;SDS011;4241;48.452;9.216;2024-03-23T13:09:39;420.07;;;120.00;;
8407;SDS011;4241;48.452;9.216;2024-03-23T13:12:06;413.90;;;115.43;;
8407;SDS011;4241;48.452;9.216;2024-03-23T13:14:33;417.40;;;118.07;;
8407;SDS011;4241;48.452;9.216;2024-03-23T13:16:59;416.03;;;117.00;;
8407;SDS011;4241;48.452;9.216;2024-03-23T13:19:26;415.43;;;117.07;;
8407;SDS011;4241;48.452;9.216;2024-03-23T13:21:55;414.50;;;116.40;;
8407;SDS011;4241;48.452;9.216;2024-03-23T13:24:23;417.47;;;119.40;;
8407;SDS011;4241;48.452;9.216;2024-03-23T13:26:50;414.07;;;115.40;;
8407;SDS011;4241;48.452;9.216;2024-03-23T13:29:17;416.93;;;117.57;;
8407;SDS011;4241;48.452;9.216;2024-03-23T13:31:44;418.73;;;120.47;;
8407;SDS011;4241;48.452;9.216;2024-03-23T13:34:10;418.10;;;117.53;;
8407;SDS011;4241;48.452;9.216;2024-03-23T13:36:38;416.47;;;117.80;;
8407;SDS011;4241;48.452;9.216;2024-03-23T13:39:04;419.33;;;119.30;;
8407;SDS011;4241;48.452;9.216;2024-03-23T13:41:37;417.40;;;118.40;;
8407;SDS011;4241;48.452;9.216;2024-03-23T13:44:04;414.93;;;115.57;;
8407;SDS011;4241;48.452;9.216;2024-03-23T13:46:31;417.23;;;118.37;;
8407;SDS011;4241;48.452;9.216;2024-03-23T13:48:57;418.13;;;119.13;;
8407;SDS011;4241;48.452;9.216;2024-03-23T13:51:24;416.63;;;117.13;;
8407;SDS011;4241;48.452;9.216;2024-03-23T13:53:52;416.00;;;116.97;;
8407;SDS011;4241;48.452;9.216;2024-03-23T13:56:19;416.83;;;117.97;;
8407;SDS011;4241;48.452;9.216;2024-03-23T13:58:46;418.67;;;119.57;;
8407;SDS011;4241;48.452;9.216;2024-03-23T14:01:13;415.07;;;116.47;;
8407;SDS011;4241;48.452;9.216;2024-03-23T14:03:40;418.83;;;118.90;;
8407;SDS011;4241;48.452;9.216;2024-03-23T14:06:07;415.03;;;116.37;;
8407;SDS011;4241;48.452;9.216;2024-03-23T14:08:33;420.77;;;121.30;;
8407;SDS011;4241;48.452;9.216;2024-03-23T14:11:01;414.90;;;116.63;;
8407;SDS011;4241;48.452;9.216;2024-03-23T14:13:28;418.43;;;119.33;;
8407;SDS011;4241;48.452;9.216;2024-03-23T14:15:57;416.43;;;117.27;;
8407;SDS011;4241;48.452;9.216;2024-03-23T14:18:23;419.93;;;120.47;;
8407;SDS011;4241;48.452;9.216;2024-03-23T14:20:51;418.03;;;118.60;;
8407;SDS011;4241;48.452;9.216;2024-03-23T14:23:18;419.33;;;120.23;;
8407;SDS011;4241;48.452;9.216;2024-03-23T14:25:45;414.30;;;116.27;;
8407;SDS011;4241;48.452;9.216;2024-03-23T14:28:10;416.03;;;117.33;;
8407;SDS011;4241;48.452;9.216;2024-03-23T14:30:40;413.73;;;115.80;;
8407;SDS011;4241;48.452;9.216;2024-03-23T14:33:08;410.10;;;113.60;;
8407;SDS011;4241;48.452;9.216;2024-03-23T14:35:35;414.60;;;117.20;;
8407;SDS011;4241;48.452;9.216;2024-03-23T14:38:01;414.53;;;117.00;;
8407;SDS011;4241;48.452;9.216;2024-03-23T14:40:28;418.73;;;121.77;;
8407;SDS011;4241;48.452;9.216;2024-03-23T14:42:54;410.70;;;113.90;;
8407;SDS011;4241;48.452;9.216;2024-03-23T14:45:21;409.57;;;114.07;;
8407;SDS011;4241;48.452;9.216;2024-03-23T14:47:49;412.10;;;115.73;;
8407;SDS011;4241;48.452;9.216;2024-03-23T14:50:17;410.80;;;114.87;;
8407;SDS011;4241;48.452;9.216;2024-03-23T14:52:44;411.00;;;116.00;;
8407;SDS011;4241;48.452;9.216;2024-03-23T14:55:11;408.20;;;113.07;;
8407;SDS011;4241;48.452;9.216;2024-03-23T14:57:37;410.73;;;115.73;;
8407;SDS011;4241;48.452;9.216;2024-03-23T15:00:05;407.90;;;113.93;;
8407;SDS011;4241;48.452;9.216;2024-03-23T15:02:33;410.40;;;116.27;;
8407;SDS011;4241;48.452;9.216;2024-03-23T15:05:00;404.60;;;110.30;;
8407;SDS011;4241;48.452;9.216;2024-03-23T15:07:27;408.43;;;114.20;;
8407;SDS011;4241;48.452;9.216;2024-03-23T15:09:54;403.40;;;110.30;;
8407;SDS011;4241;48.452;9.216;2024-03-23T15:12:20;404.13;;;112.33;;
8407;SDS011;4241;48.452;9.216;2024-03-23T15:14:47;401.43;;;110.43;;
8407;SDS011;4241;48.452;9.216;2024-03-23T15:17:13;404.33;;;112.13;;